Impacts METAR Board
IDs:

KONX - Currituck Cnty, NC, US

Updated at: 1800 UTC 02 Oct 2022
Potential Impact None Slight Moderate High
Time 02/06Z 02/07Z 02/08Z 02/09Z 02/10Z 02/11Z 02/12Z 02/13Z 02/14Z 02/15Z 02/16Z 02/17Z 02/18Z
Temp59 58 58 58 60 60 61 62 64 66 68 67 67
Dewpt59 58 58 58 59 59 59 59 57 56 55 56 55
Altim29.84 29.83 29.84 29.84 29.84 29.85 29.86 29.87 29.88 29.89 29.89 29.88 29.87
VIS10 10 10 10 10 10 10 10 10 10 10 10 10
CIG-- -- -- 75 75 75 75 60 42 55 38 38 42
CoverCLRCLRCLRBKNOVCOVCOVCOVCOVCOVCOVCOVCOVC
FltCatVFRVFRVFRVFRVFRVFRVFRVFRVFRVFRVFRVFRVFR
WX--------------------------
WDir00000002402600270280260
WSpd0 0 0 0 0 0 0 3 3 0 3 3 3
WGst-- -- -- -- -- -- -- -- -- -- -- -- --
Raw hourly METARs
KONX 020555Z AUTO 00000KT 10SM CLR 15/15 A2984 RMK AO2 T01500150 10324 20094
KONX 020655Z AUTO 00000KT 10SM CLR 15/15 A2983 RMK AO2 T01470147
KONX 020755Z AUTO 00000KT 10SM CLR 14/14 A2984 RMK AO2 T01440144
KONX 020855Z AUTO 00000KT 10SM BKN075 14/14 A2984 RMK AO2 T01440144
KONX 020955Z AUTO 00000KT 10SM OVC075 15/15 A2984 RMK AO2 T01540148
KONX 021055Z AUTO 00000KT 10SM OVC075 16/15 A2985 RMK AO2 T01570152
KONX 021155Z AUTO 00000KT 10SM OVC075 16/15 A2986 RMK AO2 T01600149 10324 20094
KONX 021255Z AUTO 24003KT 10SM SCT046 BKN060 OVC075 17/15 A2987 RMK AO2 T01670150
KONX 021355Z AUTO 26003KT 10SM OVC042 18/14 A2988 RMK AO2 T01760141
KONX 021455Z AUTO 00000KT 10SM SCT042 BKN055 OVC085 19/14 A2989 RMK AO2 T01870135
KONX 021555Z AUTO 27003KT 10SM BKN038 OVC050 20/13 A2989 RMK AO2 T01980129
KONX 021655Z AUTO 28003KT 10SM OVC038 20/13 A2988 RMK AO2 T01970131
KONX 021755Z AUTO 26003KT 10SM BKN042 OVC049 20/13 A2987 RMK AO2 T01970130 10324 20094



Page loaded:  18:16 UTC  |   11:16 AM Pacific  |   12:16 PM Mountain  |   01:16 PM Central  |   02:16 PM Eastern

 

ADVISORIES

FORECASTS

FORECASTS

OBSERVATIONS

USER TOOLS

ABOUT US